sensor_id;sensor_type;location;lat;lon;timestamp;P1;durP1;ratioP1;P2;durP2;ratioP2
23302;SDS011;11820;48.738;9.092;2023-04-25T00:00:23;1.63;;;1.30;;
23302;SDS011;11820;48.738;9.092;2023-04-25T00:02:48;3.30;;;1.80;;
23302;SDS011;11820;48.738;9.092;2023-04-25T00:05:14;3.17;;;1.57;;
23302;SDS011;11820;48.738;9.092;2023-04-25T00:07:40;3.00;;;1.63;;
23302;SDS011;11820;48.738;9.092;2023-04-25T00:10:07;3.43;;;1.57;;
23302;SDS011;11820;48.738;9.092;2023-04-25T00:12:33;3.13;;;1.60;;
23302;SDS011;11820;48.738;9.092;2023-04-25T00:14:59;2.93;;;1.10;;
23302;SDS011;11820;48.738;9.092;2023-04-25T00:17:24;1.60;;;1.27;;
23302;SDS011;11820;48.738;9.092;2023-04-25T00:19:50;2.50;;;1.40;;
23302;SDS011;11820;48.738;9.092;2023-04-25T00:22:16;2.83;;;1.47;;
23302;SDS011;11820;48.738;9.092;2023-04-25T00:24:42;3.93;;;1.47;;
23302;SDS011;11820;48.738;9.092;2023-04-25T00:27:07;1.67;;;1.23;;
23302;SDS011;11820;48.738;9.092;2023-04-25T00:29:33;1.60;;;1.50;;
23302;SDS011;11820;48.738;9.092;2023-04-25T00:31:59;1.90;;;1.20;;
23302;SDS011;11820;48.738;9.092;2023-04-25T00:34:24;2.60;;;1.90;;
23302;SDS011;11820;48.738;9.092;2023-04-25T00:36:49;3.23;;;1.57;;
23302;SDS011;11820;48.738;9.092;2023-04-25T00:39:15;2.00;;;1.40;;
23302;SDS011;11820;48.738;9.092;2023-04-25T00:41:40;2.37;;;1.60;;
23302;SDS011;11820;48.738;9.092;2023-04-25T00:44:05;3.17;;;1.77;;
23302;SDS011;11820;48.738;9.092;2023-04-25T00:46:33;1.70;;;1.60;;
23302;SDS011;11820;48.738;9.092;2023-04-25T00:49:00;3.03;;;1.70;;
23302;SDS011;11820;48.738;9.092;2023-04-25T00:51:26;1.80;;;1.70;;
23302;SDS011;11820;48.738;9.092;2023-04-25T00:53:51;3.63;;;2.07;;
23302;SDS011;11820;48.738;9.092;2023-04-25T00:56:17;1.87;;;1.67;;
23302;SDS011;11820;48.738;9.092;2023-04-25T00:58:43;1.67;;;1.50;;
23302;SDS011;11820;48.738;9.092;2023-04-25T01:01:08;1.73;;;1.60;;
23302;SDS011;11820;48.738;9.092;2023-04-25T01:03:35;1.60;;;1.50;;
23302;SDS011;11820;48.738;9.092;2023-04-25T01:06:06;2.67;;;1.77;;
23302;SDS011;11820;48.738;9.092;2023-04-25T01:08:33;3.20;;;1.87;;
23302;SDS011;11820;48.738;9.092;2023-04-25T01:10:59;2.97;;;1.63;;
23302;SDS011;11820;48.738;9.092;2023-04-25T01:13:24;1.90;;;1.63;;
23302;SDS011;11820;48.738;9.092;2023-04-25T01:15:49;3.43;;;1.60;;
23302;SDS011;11820;48.738;9.092;2023-04-25T01:18:15;2.83;;;1.80;;
23302;SDS011;11820;48.738;9.092;2023-04-25T01:20:41;2.40;;;2.20;;
23302;SDS011;11820;48.738;9.092;2023-04-25T01:23:06;1.70;;;1.60;;
23302;SDS011;11820;48.738;9.092;2023-04-25T01:25:32;3.83;;;2.13;;
23302;SDS011;11820;48.738;9.092;2023-04-25T01:27:59;2.67;;;1.80;;
23302;SDS011;11820;48.738;9.092;2023-04-25T01:30:25;2.27;;;1.80;;
23302;SDS011;11820;48.738;9.092;2023-04-25T01:32:52;2.33;;;1.80;;
23302;SDS011;11820;48.738;9.092;2023-04-25T01:35:20;2.63;;;2.00;;
23302;SDS011;11820;48.738;9.092;2023-04-25T01:37:46;6.03;;;2.20;;
23302;SDS011;11820;48.738;9.092;2023-04-25T01:40:12;4.03;;;1.67;;
23302;SDS011;11820;48.738;9.092;2023-04-25T01:42:39;3.20;;;2.00;;
23302;SDS011;11820;48.738;9.092;2023-04-25T01:45:07;1.97;;;1.70;;
23302;SDS011;11820;48.738;9.092;2023-04-25T01:47:33;2.03;;;1.53;;
23302;SDS011;11820;48.738;9.092;2023-04-25T01:50:02;4.27;;;2.10;;
23302;SDS011;11820;48.738;9.092;2023-04-25T01:52:29;3.77;;;2.00;;
23302;SDS011;11820;48.738;9.092;2023-04-25T01:54:54;3.87;;;2.17;;
23302;SDS011;11820;48.738;9.092;2023-04-25T01:57:21;2.43;;;2.20;;
23302;SDS011;11820;48.738;9.092;2023-04-25T01:59:47;3.07;;;2.03;;
23302;SDS011;11820;48.738;9.092;2023-04-25T02:02:12;3.80;;;2.27;;
23302;SDS011;11820;48.738;9.092;2023-04-25T02:04:37;2.07;;;1.97;;
23302;SDS011;11820;48.738;9.092;2023-04-25T02:07:03;2.47;;;1.87;;
23302;SDS011;11820;48.738;9.092;2023-04-25T02:09:28;3.20;;;1.60;;
23302;SDS011;11820;48.738;9.092;2023-04-25T02:11:54;2.33;;;1.70;;
23302;SDS011;11820;48.738;9.092;2023-04-25T02:14:19;1.90;;;1.43;;
23302;SDS011;11820;48.738;9.092;2023-04-25T02:16:44;2.77;;;1.77;;
23302;SDS011;11820;48.738;9.092;2023-04-25T02:19:11;3.30;;;1.70;;
23302;SDS011;11820;48.738;9.092;2023-04-25T02:21:36;1.70;;;1.60;;
23302;SDS011;11820;48.738;9.092;2023-04-25T02:24:02;1.40;;;1.30;;
23302;SDS011;11820;48.738;9.092;2023-04-25T02:26:29;2.13;;;1.40;;
23302;SDS011;11820;48.738;9.092;2023-04-25T02:28:55;4.53;;;1.87;;
23302;SDS011;11820;48.738;9.092;2023-04-25T02:31:22;2.30;;;2.03;;
23302;SDS011;11820;48.738;9.092;2023-04-25T02:33:47;2.90;;;1.87;;
23302;SDS011;11820;48.738;9.092;2023-04-25T02:36:13;1.60;;;1.50;;
23302;SDS011;11820;48.738;9.092;2023-04-25T02:38:38;3.03;;;1.50;;
23302;SDS011;11820;48.738;9.092;2023-04-25T02:41:03;2.93;;;1.80;;
23302;SDS011;11820;48.738;9.092;2023-04-25T02:43:29;3.00;;;1.67;;
23302;SDS011;11820;48.738;9.092;2023-04-25T02:45:54;1.90;;;1.60;;
23302;SDS011;11820;48.738;9.092;2023-04-25T02:48:20;2.57;;;1.73;;
23302;SDS011;11820;48.738;9.092;2023-04-25T02:50:45;2.73;;;1.80;;
23302;SDS011;11820;48.738;9.092;2023-04-25T02:53:11;2.30;;;1.50;;
23302;SDS011;11820;48.738;9.092;2023-04-25T02:55:36;2.30;;;1.93;;
23302;SDS011;11820;48.738;9.092;2023-04-25T02:58:01;2.20;;;1.73;;
23302;SDS011;11820;48.738;9.092;2023-04-25T03:00:27;3.07;;;2.00;;
23302;SDS011;11820;48.738;9.092;2023-04-25T03:02:52;3.40;;;2.40;;
23302;SDS011;11820;48.738;9.092;2023-04-25T03:05:18;3.30;;;1.90;;
23302;SDS011;11820;48.738;9.092;2023-04-25T03:07:44;2.00;;;1.80;;
23302;SDS011;11820;48.738;9.092;2023-04-25T03:10:10;3.83;;;2.30;;
23302;SDS011;11820;48.738;9.092;2023-04-25T03:12:36;2.90;;;1.87;;
23302;SDS011;11820;48.738;9.092;2023-04-25T03:15:02;2.73;;;1.83;;
23302;SDS011;11820;48.738;9.092;2023-04-25T03:17:27;2.20;;;1.60;;
23302;SDS011;11820;48.738;9.092;2023-04-25T03:19:53;2.13;;;1.90;;
23302;SDS011;11820;48.738;9.092;2023-04-25T03:22:18;3.13;;;1.90;;
23302;SDS011;11820;48.738;9.092;2023-04-25T03:24:43;2.93;;;2.17;;
23302;SDS011;11820;48.738;9.092;2023-04-25T03:27:08;2.23;;;2.00;;
23302;SDS011;11820;48.738;9.092;2023-04-25T03:29:34;2.97;;;2.10;;
23302;SDS011;11820;48.738;9.092;2023-04-25T03:31:59;2.33;;;2.13;;
23302;SDS011;11820;48.738;9.092;2023-04-25T03:34:25;4.10;;;1.90;;
23302;SDS011;11820;48.738;9.092;2023-04-25T03:36:50;2.40;;;1.87;;
23302;SDS011;11820;48.738;9.092;2023-04-25T03:39:16;2.33;;;1.70;;
23302;SDS011;11820;48.738;9.092;2023-04-25T03:41:41;2.97;;;2.23;;
23302;SDS011;11820;48.738;9.092;2023-04-25T03:44:07;3.73;;;1.60;;
23302;SDS011;11820;48.738;9.092;2023-04-25T03:46:32;2.70;;;2.10;;
23302;SDS011;11820;48.738;9.092;2023-04-25T03:48:57;2.10;;;1.90;;
23302;SDS011;11820;48.738;9.092;2023-04-25T03:51:24;3.07;;;1.90;;
23302;SDS011;11820;48.738;9.092;2023-04-25T03:53:50;4.50;;;1.97;;
23302;SDS011;11820;48.738;9.092;2023-04-25T03:56:15;3.80;;;2.20;;
23302;SDS011;11820;48.738;9.092;2023-04-25T03:58:41;2.50;;;2.00;;
23302;SDS011;11820;48.738;9.092;2023-04-25T04:01:06;2.13;;;1.90;;
23302;SDS011;11820;48.738;9.092;2023-04-25T04:03:35;3.23;;;1.97;;
23302;SDS011;11820;48.738;9.092;2023-04-25T04:06:01;3.77;;;2.13;;
23302;SDS011;11820;48.738;9.092;2023-04-25T04:08:28;3.83;;;2.37;;
23302;SDS011;11820;48.738;9.092;2023-04-25T04:10:54;1.73;;;1.60;;
23302;SDS011;11820;48.738;9.092;2023-04-25T04:13:20;3.53;;;2.00;;
23302;SDS011;11820;48.738;9.092;2023-04-25T04:15:45;3.97;;;2.23;;
23302;SDS011;11820;48.738;9.092;2023-04-25T04:18:10;3.93;;;2.07;;
23302;SDS011;11820;48.738;9.092;2023-04-25T04:20:36;4.23;;;2.20;;
23302;SDS011;11820;48.738;9.092;2023-04-25T04:23:01;5.17;;;2.50;;
23302;SDS011;11820;48.738;9.092;2023-04-25T04:25:26;4.87;;;2.33;;
23302;SDS011;11820;48.738;9.092;2023-04-25T04:27:51;3.73;;;2.37;;
23302;SDS011;11820;48.738;9.092;2023-04-25T04:30:20;5.37;;;2.27;;
23302;SDS011;11820;48.738;9.092;2023-04-25T04:32:49;3.40;;;2.27;;
23302;SDS011;11820;48.738;9.092;2023-04-25T04:35:15;3.70;;;2.23;;
23302;SDS011;11820;48.738;9.092;2023-04-25T04:37:40;2.97;;;2.60;;
23302;SDS011;11820;48.738;9.092;2023-04-25T04:40:06;3.00;;;2.43;;
23302;SDS011;11820;48.738;9.092;2023-04-25T04:42:32;3.17;;;2.30;;
23302;SDS011;11820;48.738;9.092;2023-04-25T04:44:57;3.63;;;2.40;;
23302;SDS011;11820;48.738;9.092;2023-04-25T04:47:23;3.43;;;2.50;;
23302;SDS011;11820;48.738;9.092;2023-04-25T04:49:50;2.80;;;2.10;;
23302;SDS011;11820;48.738;9.092;2023-04-25T04:52:16;3.37;;;2.37;;
23302;SDS011;11820;48.738;9.092;2023-04-25T04:54:41;6.30;;;2.60;;
23302;SDS011;11820;48.738;9.092;2023-04-25T04:57:06;3.70;;;2.50;;
23302;SDS011;11820;48.738;9.092;2023-04-25T04:59:32;2.50;;;2.30;;
23302;SDS011;11820;48.738;9.092;2023-04-25T05:01:57;2.87;;;2.20;;
23302;SDS011;11820;48.738;9.092;2023-04-25T05:04:22;3.37;;;2.60;;
23302;SDS011;11820;48.738;9.092;2023-04-25T05:06:48;3.00;;;2.60;;
23302;SDS011;11820;48.738;9.092;2023-04-25T05:09:13;3.70;;;2.13;;
23302;SDS011;11820;48.738;9.092;2023-04-25T05:11:39;2.70;;;2.30;;
23302;SDS011;11820;48.738;9.092;2023-04-25T05:14:05;4.27;;;2.73;;
23302;SDS011;11820;48.738;9.092;2023-04-25T05:16:30;4.53;;;2.53;;
23302;SDS011;11820;48.738;9.092;2023-04-25T05:18:55;2.93;;;2.40;;
23302;SDS011;11820;48.738;9.092;2023-04-25T05:21:21;3.37;;;2.23;;
23302;SDS011;11820;48.738;9.092;2023-04-25T05:23:46;3.37;;;2.60;;
23302;SDS011;11820;48.738;9.092;2023-04-25T05:26:11;2.57;;;2.37;;
23302;SDS011;11820;48.738;9.092;2023-04-25T05:28:38;2.90;;;2.70;;
23302;SDS011;11820;48.738;9.092;2023-04-25T05:31:07;3.57;;;2.87;;
23302;SDS011;11820;48.738;9.092;2023-04-25T05:33:34;6.07;;;2.60;;
23302;SDS011;11820;48.738;9.092;2023-04-25T05:36:00;3.60;;;2.37;;
23302;SDS011;11820;48.738;9.092;2023-04-25T05:38:25;3.57;;;2.87;;
23302;SDS011;11820;48.738;9.092;2023-04-25T05:40:51;3.30;;;2.70;;
23302;SDS011;11820;48.738;9.092;2023-04-25T05:43:16;3.80;;;2.83;;
23302;SDS011;11820;48.738;9.092;2023-04-25T05:45:41;3.60;;;3.00;;
23302;SDS011;11820;48.738;9.092;2023-04-25T05:48:07;4.77;;;3.27;;
23302;SDS011;11820;48.738;9.092;2023-04-25T05:50:32;3.80;;;2.90;;
23302;SDS011;11820;48.738;9.092;2023-04-25T05:52:57;4.93;;;2.97;;
23302;SDS011;11820;48.738;9.092;2023-04-25T05:55:23;3.40;;;2.67;;
23302;SDS011;11820;48.738;9.092;2023-04-25T05:57:48;2.87;;;2.57;;
23302;SDS011;11820;48.738;9.092;2023-04-25T06:00:13;5.87;;;2.40;;
23302;SDS011;11820;48.738;9.092;2023-04-25T06:02:40;3.93;;;2.73;;
23302;SDS011;11820;48.738;9.092;2023-04-25T06:05:07;3.93;;;2.77;;
23302;SDS011;11820;48.738;9.092;2023-04-25T06:07:33;4.10;;;2.80;;
23302;SDS011;11820;48.738;9.092;2023-04-25T06:09:58;2.77;;;2.57;;
23302;SDS011;11820;48.738;9.092;2023-04-25T06:12:25;3.83;;;2.50;;
23302;SDS011;11820;48.738;9.092;2023-04-25T06:14:50;3.80;;;3.27;;
23302;SDS011;11820;48.738;9.092;2023-04-25T06:17:15;3.23;;;2.73;;
23302;SDS011;11820;48.738;9.092;2023-04-25T06:19:40;4.53;;;2.70;;
23302;SDS011;11820;48.738;9.092;2023-04-25T06:22:06;3.50;;;2.50;;
23302;SDS011;11820;48.738;9.092;2023-04-25T06:24:32;5.67;;;3.30;;
23302;SDS011;11820;48.738;9.092;2023-04-25T06:26:58;3.63;;;2.77;;
23302;SDS011;11820;48.738;9.092;2023-04-25T06:29:23;3.50;;;3.20;;
23302;SDS011;11820;48.738;9.092;2023-04-25T06:31:48;4.10;;;2.70;;
23302;SDS011;11820;48.738;9.092;2023-04-25T06:34:13;3.83;;;3.00;;
23302;SDS011;11820;48.738;9.092;2023-04-25T06:36:40;4.80;;;2.80;;
23302;SDS011;11820;48.738;9.092;2023-04-25T06:39:06;3.67;;;2.63;;
23302;SDS011;11820;48.738;9.092;2023-04-25T06:41:31;3.50;;;2.87;;
23302;SDS011;11820;48.738;9.092;2023-04-25T06:43:57;4.67;;;3.20;;
23302;SDS011;11820;48.738;9.092;2023-04-25T06:46:22;3.30;;;3.00;;
23302;SDS011;11820;48.738;9.092;2023-04-25T06:48:47;3.93;;;2.83;;
23302;SDS011;11820;48.738;9.092;2023-04-25T06:51:13;3.40;;;3.00;;
23302;SDS011;11820;48.738;9.092;2023-04-25T06:53:38;5.80;;;3.00;;
23302;SDS011;11820;48.738;9.092;2023-04-25T06:56:04;2.60;;;2.40;;
23302;SDS011;11820;48.738;9.092;2023-04-25T06:58:30;3.80;;;3.47;;
23302;SDS011;11820;48.738;9.092;2023-04-25T07:00:55;3.73;;;3.43;;
23302;SDS011;11820;48.738;9.092;2023-04-25T07:03:20;3.77;;;3.37;;
23302;SDS011;11820;48.738;9.092;2023-04-25T07:05:46;4.37;;;3.23;;
23302;SDS011;11820;48.738;9.092;2023-04-25T07:08:11;3.23;;;2.87;;
23302;SDS011;11820;48.738;9.092;2023-04-25T07:10:37;3.73;;;3.43;;
23302;SDS011;11820;48.738;9.092;2023-04-25T07:13:02;5.00;;;3.47;;
23302;SDS011;11820;48.738;9.092;2023-04-25T07:15:28;4.07;;;3.47;;
23302;SDS011;11820;48.738;9.092;2023-04-25T07:17:53;3.50;;;3.20;;
23302;SDS011;11820;48.738;9.092;2023-04-25T07:20:19;4.00;;;3.63;;
23302;SDS011;11820;48.738;9.092;2023-04-25T07:22:44;3.13;;;2.80;;
23302;SDS011;11820;48.738;9.092;2023-04-25T07:25:10;3.23;;;2.97;;
23302;SDS011;11820;48.738;9.092;2023-04-25T07:27:35;3.10;;;2.80;;
23302;SDS011;11820;48.738;9.092;2023-04-25T07:30:00;4.53;;;3.60;;
23302;SDS011;11820;48.738;9.092;2023-04-25T07:32:26;3.40;;;3.10;;
23302;SDS011;11820;48.738;9.092;2023-04-25T07:34:52;5.57;;;3.83;;
23302;SDS011;11820;48.738;9.092;2023-04-25T07:37:17;3.53;;;3.00;;
23302;SDS011;11820;48.738;9.092;2023-04-25T07:39:43;3.47;;;3.17;;
23302;SDS011;11820;48.738;9.092;2023-04-25T07:42:11;3.87;;;3.43;;
23302;SDS011;11820;48.738;9.092;2023-04-25T07:44:36;3.57;;;3.20;;
23302;SDS011;11820;48.738;9.092;2023-04-25T07:47:07;5.67;;;3.67;;
23302;SDS011;11820;48.738;9.092;2023-04-25T07:49:33;4.67;;;3.43;;
23302;SDS011;11820;48.738;9.092;2023-04-25T07:52:00;6.93;;;4.70;;
23302;SDS011;11820;48.738;9.092;2023-04-25T07:54:26;5.30;;;4.33;;
23302;SDS011;11820;48.738;9.092;2023-04-25T07:56:51;4.90;;;3.53;;
23302;SDS011;11820;48.738;9.092;2023-04-25T07:59:16;3.90;;;3.60;;
23302;SDS011;11820;48.738;9.092;2023-04-25T08:01:42;5.93;;;3.70;;
23302;SDS011;11820;48.738;9.092;2023-04-25T08:04:07;3.43;;;3.10;;
23302;SDS011;11820;48.738;9.092;2023-04-25T08:06:32;5.20;;;3.77;;
23302;SDS011;11820;48.738;9.092;2023-04-25T08:08:58;3.33;;;3.03;;
23302;SDS011;11820;48.738;9.092;2023-04-25T08:11:23;3.57;;;3.20;;
23302;SDS011;11820;48.738;9.092;2023-04-25T08:13:48;3.43;;;3.00;;
23302;SDS011;11820;48.738;9.092;2023-04-25T08:16:14;4.77;;;3.70;;
23302;SDS011;11820;48.738;9.092;2023-04-25T08:18:39;4.23;;;3.80;;
23302;SDS011;11820;48.738;9.092;2023-04-25T08:21:05;4.87;;;3.77;;
23302;SDS011;11820;48.738;9.092;2023-04-25T08:23:31;4.93;;;4.30;;
23302;SDS011;11820;48.738;9.092;2023-04-25T08:25:56;4.77;;;3.90;;
23302;SDS011;11820;48.738;9.092;2023-04-25T08:28:22;6.87;;;5.20;;
23302;SDS011;11820;48.738;9.092;2023-04-25T08:30:47;7.33;;;4.93;;
23302;SDS011;11820;48.738;9.092;2023-04-25T08:33:12;7.93;;;5.33;;
23302;SDS011;11820;48.738;9.092;2023-04-25T08:35:38;8.90;;;5.53;;
23302;SDS011;11820;48.738;9.092;2023-04-25T08:38:03;7.30;;;5.63;;
23302;SDS011;11820;48.738;9.092;2023-04-25T08:40:29;5.20;;;4.60;;
23302;SDS011;11820;48.738;9.092;2023-04-25T08:43:00;4.57;;;4.03;;
23302;SDS011;11820;48.738;9.092;2023-04-25T08:45:28;5.97;;;4.27;;
23302;SDS011;11820;48.738;9.092;2023-04-25T08:47:57;5.97;;;4.10;;
23302;SDS011;11820;48.738;9.092;2023-04-25T08:50:23;5.10;;;4.37;;
23302;SDS011;11820;48.738;9.092;2023-04-25T08:52:51;4.23;;;3.83;;
23302;SDS011;11820;48.738;9.092;2023-04-25T08:55:18;4.60;;;4.17;;
23302;SDS011;11820;48.738;9.092;2023-04-25T08:57:45;4.50;;;4.10;;
23302;SDS011;11820;48.738;9.092;2023-04-25T09:00:11;4.60;;;4.17;;
23302;SDS011;11820;48.738;9.092;2023-04-25T09:02:38;7.50;;;4.67;;
23302;SDS011;11820;48.738;9.092;2023-04-25T09:05:04;4.43;;;4.03;;
23302;SDS011;11820;48.738;9.092;2023-04-25T09:07:31;5.57;;;4.13;;
23302;SDS011;11820;48.738;9.092;2023-04-25T09:09:57;6.57;;;4.37;;
23302;SDS011;11820;48.738;9.092;2023-04-25T09:12:26;5.17;;;4.50;;
23302;SDS011;11820;48.738;9.092;2023-04-25T09:15:06;3.83;;;3.47;;
23302;SDS011;11820;48.738;9.092;2023-04-25T09:17:35;5.18;;;4.60;;
23302;SDS011;11820;48.738;9.092;2023-04-25T09:20:09;4.53;;;4.13;;
23302;SDS011;11820;48.738;9.092;2023-04-25T09:22:36;4.07;;;3.77;;
23302;SDS011;11820;48.738;9.092;2023-04-25T09:25:02;4.67;;;4.10;;
23302;SDS011;11820;48.738;9.092;2023-04-25T09:27:49;4.40;;;4.00;;
23302;SDS011;11820;48.738;9.092;2023-04-25T09:30:16;4.43;;;3.67;;
23302;SDS011;11820;48.738;9.092;2023-04-25T09:32:42;3.40;;;3.10;;
23302;SDS011;11820;48.738;9.092;2023-04-25T09:35:08;4.60;;;3.70;;
23302;SDS011;11820;48.738;9.092;2023-04-25T09:37:34;4.50;;;3.33;;
23302;SDS011;11820;48.738;9.092;2023-04-25T09:40:00;3.80;;;3.40;;
23302;SDS011;11820;48.738;9.092;2023-04-25T09:42:30;4.00;;;3.70;;
23302;SDS011;11820;48.738;9.092;2023-04-25T09:44:57;4.17;;;3.77;;
23302;SDS011;11820;48.738;9.092;2023-04-25T09:47:23;3.57;;;3.10;;
23302;SDS011;11820;48.738;9.092;2023-04-25T09:49:50;3.47;;;3.17;;
23302;SDS011;11820;48.738;9.092;2023-04-25T09:52:18;3.70;;;2.87;;
23302;SDS011;11820;48.738;9.092;2023-04-25T09:54:45;3.40;;;2.90;;
23302;SDS011;11820;48.738;9.092;2023-04-25T09:57:13;3.07;;;2.80;;
23302;SDS011;11820;48.738;9.092;2023-04-25T09:59:44;1.97;;;1.87;;
23302;SDS011;11820;48.738;9.092;2023-04-25T10:02:11;1.87;;;1.77;;
23302;SDS011;11820;48.738;9.092;2023-04-25T10:04:37;1.40;;;1.30;;
23302;SDS011;11820;48.738;9.092;2023-04-25T10:07:05;1.87;;;1.63;;
23302;SDS011;11820;48.738;9.092;2023-04-25T10:09:32;2.00;;;1.27;;
23302;SDS011;11820;48.738;9.092;2023-04-25T10:11:59;1.10;;;1.00;;
23302;SDS011;11820;48.738;9.092;2023-04-25T10:14:25;1.43;;;1.33;;
23302;SDS011;11820;48.738;9.092;2023-04-25T10:16:51;1.83;;;1.10;;
23302;SDS011;11820;48.738;9.092;2023-04-25T10:19:19;1.30;;;1.20;;
23302;SDS011;11820;48.738;9.092;2023-04-25T10:21:50;1.23;;;1.00;;
23302;SDS011;11820;48.738;9.092;2023-04-25T10:24:19;0.97;;;0.97;;
23302;SDS011;11820;48.738;9.092;2023-04-25T10:26:45;1.00;;;0.80;;
23302;SDS011;11820;48.738;9.092;2023-04-25T10:29:12;0.90;;;0.90;;
23302;SDS011;11820;48.738;9.092;2023-04-25T10:31:46;1.00;;;0.97;;
23302;SDS011;11820;48.738;9.092;2023-04-25T10:34:12;2.00;;;0.90;;
23302;SDS011;11820;48.738;9.092;2023-04-25T10:36:37;1.23;;;1.00;;
23302;SDS011;11820;48.738;9.092;2023-04-25T10:39:04;1.10;;;0.93;;
23302;SDS011;11820;48.738;9.092;2023-04-25T10:41:46;1.73;;;0.80;;
23302;SDS011;11820;48.738;9.092;2023-04-25T10:44:21;0.80;;;0.80;;
23302;SDS011;11820;48.738;9.092;2023-04-25T10:46:46;1.10;;;1.00;;
23302;SDS011;11820;48.738;9.092;2023-04-25T10:49:14;0.90;;;0.83;;
23302;SDS011;11820;48.738;9.092;2023-04-25T10:52:38;0.80;;;0.80;;
23302;SDS011;11820;48.738;9.092;2023-04-25T10:54:56;0.83;;;0.80;;
23302;SDS011;11820;48.738;9.092;2023-04-25T10:57:29;2.20;;;0.93;;
23302;SDS011;11820;48.738;9.092;2023-04-25T10:59:59;1.10;;;1.03;;
23302;SDS011;11820;48.738;9.092;2023-04-25T11:02:30;0.90;;;0.90;;
23302;SDS011;11820;48.738;9.092;2023-04-25T11:04:55;1.20;;;1.10;;
23302;SDS011;11820;48.738;9.092;2023-04-25T11:10:03;2.53;;;2.33;;
23302;SDS011;11820;48.738;9.092;2023-04-25T11:12:30;2.67;;;2.47;;
23302;SDS011;11820;48.738;9.092;2023-04-25T11:15:03;3.40;;;2.50;;
23302;SDS011;11820;48.738;9.092;2023-04-25T11:17:30;2.90;;;2.70;;
23302;SDS011;11820;48.738;9.092;2023-04-25T11:19:56;3.20;;;2.70;;
23302;SDS011;11820;48.738;9.092;2023-04-25T11:22:22;7.83;;;5.80;;
23302;SDS011;11820;48.738;9.092;2023-04-25T11:24:48;2.57;;;2.37;;
23302;SDS011;11820;48.738;9.092;2023-04-25T11:27:13;1.83;;;1.73;;
23302;SDS011;11820;48.738;9.092;2023-04-25T11:29:39;1.80;;;1.70;;
23302;SDS011;11820;48.738;9.092;2023-04-25T11:32:05;1.90;;;1.80;;
23302;SDS011;11820;48.738;9.092;2023-04-25T11:34:31;1.37;;;1.27;;
23302;SDS011;11820;48.738;9.092;2023-04-25T11:36:57;1.30;;;1.20;;
23302;SDS011;11820;48.738;9.092;2023-04-25T11:39:24;1.50;;;1.40;;
23302;SDS011;11820;48.738;9.092;2023-04-25T11:41:50;1.33;;;1.23;;
23302;SDS011;11820;48.738;9.092;2023-04-25T11:44:17;1.80;;;1.70;;
23302;SDS011;11820;48.738;9.092;2023-04-25T11:46:43;2.27;;;1.80;;
23302;SDS011;11820;48.738;9.092;2023-04-25T11:49:09;2.30;;;2.07;;
23302;SDS011;11820;48.738;9.092;2023-04-25T11:51:44;1.83;;;1.53;;
23302;SDS011;11820;48.738;9.092;2023-04-25T11:54:11;1.90;;;1.80;;
23302;SDS011;11820;48.738;9.092;2023-04-25T11:56:37;2.63;;;2.43;;
23302;SDS011;11820;48.738;9.092;2023-04-25T11:59:06;3.70;;;2.60;;
23302;SDS011;11820;48.738;9.092;2023-04-25T12:01:32;2.47;;;2.27;;
23302;SDS011;11820;48.738;9.092;2023-04-25T12:04:09;2.97;;;2.67;;
23302;SDS011;11820;48.738;9.092;2023-04-25T12:06:39;2.93;;;2.63;;
23302;SDS011;11820;48.738;9.092;2023-04-25T12:09:16;2.90;;;2.70;;
23302;SDS011;11820;48.738;9.092;2023-04-25T12:14:25;3.20;;;2.90;;
23302;SDS011;11820;48.738;9.092;2023-04-25T12:16:55;2.93;;;2.73;;
23302;SDS011;11820;48.738;9.092;2023-04-25T12:19:22;3.37;;;3.07;;
23302;SDS011;11820;48.738;9.092;2023-04-25T12:21:48;5.43;;;3.77;;
23302;SDS011;11820;48.738;9.092;2023-04-25T12:24:22;5.30;;;4.80;;
23302;SDS011;11820;48.738;9.092;2023-04-25T12:26:51;5.50;;;4.40;;
23302;SDS011;11820;48.738;9.092;2023-04-25T12:29:25;4.50;;;4.03;;
23302;SDS011;11820;48.738;9.092;2023-04-25T12:31:52;4.40;;;4.00;;
23302;SDS011;11820;48.738;9.092;2023-04-25T12:34:18;5.47;;;3.87;;
23302;SDS011;11820;48.738;9.092;2023-04-25T12:36:45;4.40;;;3.63;;
23302;SDS011;11820;48.738;9.092;2023-04-25T12:39:14;7.67;;;4.43;;
23302;SDS011;11820;48.738;9.092;2023-04-25T12:41:44;6.20;;;4.27;;
23302;SDS011;11820;48.738;9.092;2023-04-25T12:44:10;5.70;;;3.93;;
23302;SDS011;11820;48.738;9.092;2023-04-25T12:46:36;4.70;;;4.00;;
23302;SDS011;11820;48.738;9.092;2023-04-25T12:49:01;4.57;;;4.17;;
23302;SDS011;11820;48.738;9.092;2023-04-25T12:51:28;4.27;;;3.87;;
23302;SDS011;11820;48.738;9.092;2023-04-25T12:53:54;5.93;;;5.33;;
23302;SDS011;11820;48.738;9.092;2023-04-25T12:56:19;5.13;;;4.57;;
23302;SDS011;11820;48.738;9.092;2023-04-25T12:58:44;4.27;;;3.87;;
23302;SDS011;11820;48.738;9.092;2023-04-25T13:01:10;6.13;;;3.77;;
23302;SDS011;11820;48.738;9.092;2023-04-25T13:03:37;4.97;;;4.27;;
23302;SDS011;11820;48.738;9.092;2023-04-25T13:06:02;4.50;;;4.10;;
23302;SDS011;11820;48.738;9.092;2023-04-25T13:08:28;5.73;;;4.63;;
23302;SDS011;11820;48.738;9.092;2023-04-25T13:10:53;4.80;;;3.93;;
23302;SDS011;11820;48.738;9.092;2023-04-25T13:13:18;4.50;;;4.10;;
23302;SDS011;11820;48.738;9.092;2023-04-25T13:15:44;5.10;;;4.60;;
23302;SDS011;11820;48.738;9.092;2023-04-25T13:18:09;6.40;;;4.27;;
23302;SDS011;11820;48.738;9.092;2023-04-25T13:20:34;4.53;;;4.13;;
23302;SDS011;11820;48.738;9.092;2023-04-25T13:23:00;4.67;;;3.63;;
23302;SDS011;11820;48.738;9.092;2023-04-25T13:25:25;3.80;;;3.50;;
23302;SDS011;11820;48.738;9.092;2023-04-25T13:27:51;4.70;;;4.20;;
23302;SDS011;11820;48.738;9.092;2023-04-25T13:30:16;4.80;;;4.40;;
23302;SDS011;11820;48.738;9.092;2023-04-25T13:32:42;6.60;;;4.23;;
23302;SDS011;11820;48.738;9.092;2023-04-25T13:35:08;5.33;;;4.53;;
23302;SDS011;11820;48.738;9.092;2023-04-25T13:37:35;6.27;;;5.20;;
23302;SDS011;11820;48.738;9.092;2023-04-25T13:40:02;6.30;;;5.70;;
23302;SDS011;11820;48.738;9.092;2023-04-25T13:42:30;8.43;;;6.13;;
23302;SDS011;11820;48.738;9.092;2023-04-25T13:44:56;6.13;;;5.57;;
23302;SDS011;11820;48.738;9.092;2023-04-25T13:47:21;6.60;;;5.57;;
23302;SDS011;11820;48.738;9.092;2023-04-25T13:49:48;6.90;;;5.50;;
23302;SDS011;11820;48.738;9.092;2023-04-25T13:52:13;6.87;;;6.27;;
23302;SDS011;11820;48.738;9.092;2023-04-25T13:54:38;8.37;;;6.07;;
23302;SDS011;11820;48.738;9.092;2023-04-25T13:57:04;7.23;;;6.57;;
23302;SDS011;11820;48.738;9.092;2023-04-25T13:59:30;6.47;;;5.83;;
23302;SDS011;11820;48.738;9.092;2023-04-25T14:01:55;7.87;;;5.80;;
23302;SDS011;11820;48.738;9.092;2023-04-25T14:04:20;6.67;;;5.97;;
23302;SDS011;11820;48.738;9.092;2023-04-25T14:06:46;10.33;;;6.67;;
23302;SDS011;11820;48.738;9.092;2023-04-25T14:09:11;8.00;;;5.53;;
23302;SDS011;11820;48.738;9.092;2023-04-25T14:11:38;7.03;;;5.90;;
23302;SDS011;11820;48.738;9.092;2023-04-25T14:14:03;6.70;;;5.60;;
23302;SDS011;11820;48.738;9.092;2023-04-25T14:16:29;7.77;;;5.20;;
23302;SDS011;11820;48.738;9.092;2023-04-25T14:18:55;7.47;;;5.50;;
23302;SDS011;11820;48.738;9.092;2023-04-25T14:21:21;7.30;;;5.50;;
23302;SDS011;11820;48.738;9.092;2023-04-25T14:23:46;4.60;;;4.17;;
23302;SDS011;11820;48.738;9.092;2023-04-25T14:26:12;5.40;;;4.50;;
23302;SDS011;11820;48.738;9.092;2023-04-25T14:28:38;6.07;;;4.87;;
23302;SDS011;11820;48.738;9.092;2023-04-25T14:31:03;4.43;;;4.03;;
23302;SDS011;11820;48.738;9.092;2023-04-25T14:33:29;3.63;;;3.33;;
23302;SDS011;11820;48.738;9.092;2023-04-25T14:35:55;3.43;;;2.73;;
23302;SDS011;11820;48.738;9.092;2023-04-25T14:38:20;4.07;;;3.67;;
23302;SDS011;11820;48.738;9.092;2023-04-25T14:40:48;3.70;;;3.40;;
23302;SDS011;11820;48.738;9.092;2023-04-25T14:43:16;4.73;;;3.73;;
23302;SDS011;11820;48.738;9.092;2023-04-25T14:45:42;5.43;;;3.87;;
23302;SDS011;11820;48.738;9.092;2023-04-25T14:48:07;5.43;;;3.70;;